createdAt,value
2022-10-24T00:09:06.121Z,73.81
2022-10-24T00:13:59.744Z,74.03
2022-10-24T00:18:52.880Z,74.24
2022-10-24T00:23:46.362Z,75.17
2022-10-24T00:28:41.633Z,75.75
2022-10-24T00:33:35.143Z,75.94
2022-10-24T00:38:28.569Z,75.69
2022-10-24T00:43:24.458Z,75.51
2022-10-24T00:48:26.122Z,75.54
2022-10-24T00:53:20.837Z,76.85
2022-10-24T00:58:14.940Z,77.75
2022-10-24T01:03:08.197Z,78.20
2022-10-24T01:08:11.598Z,78.99
2022-10-24T01:13:18.488Z,79.22
2022-10-24T01:18:18.673Z,79.58
2022-10-24T01:23:29.617Z,80.06
2022-10-24T01:28:25.948Z,80.57
2022-10-24T01:33:28.882Z,80.00
2022-10-24T01:38:27.806Z,79.09
2022-10-24T01:43:25.990Z,79.56
2022-10-24T01:48:24.807Z,79.81
2022-10-24T01:53:20.015Z,79.52
2022-10-24T01:58:15.817Z,79.53
2022-10-24T02:03:24.566Z,79.84
2022-10-24T02:08:23.478Z,80.36
2022-10-24T02:13:24.759Z,80.27
2022-10-24T02:18:18.417Z,81.64
2022-10-24T02:23:21.516Z,82.10
2022-10-24T02:28:20.229Z,82.18
2022-10-24T02:33:14.454Z,83.19
2022-10-24T02:38:14.038Z,82.85
2022-10-24T02:43:08.418Z,81.07
2022-10-24T02:48:07.769Z,81.46
2022-10-24T02:53:00.972Z,81.91
2022-10-24T02:57:54.184Z,82.10
2022-10-24T03:02:47.648Z,82.36
2022-10-24T03:07:42.421Z,81.50
2022-10-24T03:12:35.708Z,80.29
2022-10-24T03:17:28.860Z,80.78
2022-10-24T03:22:21.967Z,80.96
2022-10-24T03:27:16.634Z,80.73
2022-10-24T03:32:09.881Z,80.85
2022-10-24T03:37:03.007Z,81.50
2022-10-24T03:41:56.181Z,81.74
2022-10-24T03:46:50.667Z,81.44
2022-10-24T03:51:43.901Z,81.46
2022-10-24T03:56:37.102Z,81.72
2022-10-24T04:01:30.312Z,82.60
2022-10-24T04:06:25.020Z,82.73
2022-10-24T04:11:18.267Z,82.20
2022-10-24T04:16:11.579Z,81.51
2022-10-24T04:21:05.062Z,81.87
2022-10-24T04:25:59.727Z,82.64
2022-10-24T04:30:56.667Z,83.25
2022-10-24T04:35:51.246Z,83.54
2022-10-24T04:40:47.245Z,82.57
2022-10-24T04:45:41.892Z,82.31
2022-10-24T04:50:35.091Z,82.02
2022-10-24T04:55:28.620Z,81.95
2022-10-24T05:00:21.972Z,82.42
2022-10-24T05:05:17.265Z,83.46
2022-10-24T05:10:12.044Z,83.71
2022-10-24T05:15:06.366Z,83.99
2022-10-24T05:19:59.588Z,84.14
2022-10-24T05:24:57.055Z,84.67
2022-10-24T05:29:50.161Z,84.35
2022-10-24T05:34:43.337Z,84.30
2022-10-24T05:39:36.686Z,83.19
2022-10-24T05:44:33.020Z,83.44
2022-10-24T05:49:26.338Z,84.07
2022-10-24T05:54:19.443Z,84.68
2022-10-24T05:59:12.680Z,84.32
2022-10-24T06:04:10.010Z,83.54
2022-10-24T06:09:06.236Z,83.70
2022-10-24T06:14:00.339Z,83.31
2022-10-24T06:18:53.537Z,83.07
2022-10-24T06:23:49.767Z,82.87
2022-10-24T06:28:43.450Z,82.98
2022-10-24T06:33:42.694Z,82.60
2022-10-24T06:38:38.997Z,82.00
2022-10-24T06:43:42.382Z,81.83
2022-10-24T06:48:36.239Z,81.51
2022-10-24T06:53:30.101Z,81.23
2022-10-24T06:58:23.393Z,80.99
2022-10-24T07:03:18.297Z,80.08
2022-10-24T07:08:12.260Z,79.54
2022-10-24T07:13:05.550Z,78.92
2022-10-24T07:17:58.721Z,78.49
2022-10-24T07:22:53.411Z,77.77
2022-10-24T07:27:46.683Z,77.37
2022-10-24T07:32:40.103Z,76.30
2022-10-24T07:37:33.295Z,75.22
2022-10-24T07:42:27.880Z,74.28
2022-10-24T07:47:20.970Z,73.36
2022-10-24T07:52:14.073Z,72.23
2022-10-24T07:57:07.261Z,71.06
2022-10-24T08:02:01.802Z,70.86
2022-10-24T08:06:54.926Z,69.52
2022-10-24T08:11:48.162Z,69.45
2022-10-24T08:16:42.724Z,69.03
2022-10-24T08:21:37.367Z,68.32
2022-10-24T08:26:30.586Z,67.50
2022-10-24T08:31:25.753Z,66.20
2022-10-24T08:36:23.301Z,65.81
2022-10-24T08:41:26.644Z,64.56
2022-10-24T08:46:40.440Z,64.89
2022-10-24T08:51:40.503Z,63.46
2022-10-24T08:56:35.133Z,60.48
2022-10-24T09:01:34.361Z,58.67
2022-10-24T09:06:30.041Z,56.33
2022-10-24T09:11:31.624Z,54.31
2022-10-24T09:16:29.197Z,51.18
2022-10-24T09:21:23.903Z,49.22
2022-10-24T09:26:19.743Z,48.66
2022-10-24T09:31:17.821Z,48.66
2022-10-24T09:36:14.900Z,49.46
2022-10-24T09:41:16.715Z,49.15
2022-10-24T09:46:12.415Z,49.16
2022-10-24T09:51:08.324Z,48.81
2022-10-24T09:56:09.963Z,48.82
2022-10-24T10:01:07.121Z,49.00
2022-10-24T10:06:04.683Z,48.17
2022-10-24T10:11:01.017Z,49.26
2022-10-24T10:15:58.087Z,49.16
2022-10-24T10:21:05.186Z,48.93
2022-10-24T10:26:20.527Z,48.90
2022-10-24T10:31:18.353Z,48.84
2022-10-24T10:36:23.811Z,47.79
2022-10-24T10:41:27.257Z,49.31
2022-10-24T10:46:32.683Z,47.78
2022-10-24T10:51:35.137Z,47.36
2022-10-24T10:56:36.017Z,47.47
2022-10-24T11:01:42.087Z,47.29
2022-10-24T11:06:45.388Z,47.31
2022-10-24T11:11:43.463Z,47.02
2022-10-24T11:16:41.233Z,46.07
2022-10-24T11:21:36.480Z,45.84
2022-10-24T11:26:33.813Z,45.19
2022-10-24T11:31:31.807Z,44.89
2022-10-24T11:36:33.818Z,46.89
2022-10-24T11:41:49.041Z,46.05
2022-10-24T11:46:48.239Z,46.41
2022-10-24T11:51:51.844Z,46.29
2022-10-24T11:56:49.904Z,45.68
2022-10-24T12:01:59.905Z,46.42
2022-10-24T12:07:04.537Z,45.31
2022-10-24T12:12:31.269Z,45.52
2022-10-24T12:17:52.090Z,45.55
2022-10-24T12:22:48.406Z,45.62
2022-10-24T12:27:43.230Z,45.37
2022-10-24T12:32:40.922Z,45.85
2022-10-24T12:37:36.698Z,44.60
2022-10-24T12:43:03.146Z,45.14
2022-10-24T12:48:30.182Z,45.07
2022-10-24T12:54:01.236Z,44.85
2022-10-24T12:59:00.043Z,44.92
2022-10-24T13:04:27.060Z,44.81
2022-10-24T13:09:31.460Z,46.43
2022-10-24T13:14:36.550Z,46.05
2022-10-24T13:19:32.558Z,45.98
2022-10-24T13:24:34.151Z,46.50
2022-10-24T13:30:03.194Z,46.30
2022-10-24T13:35:02.950Z,46.48
2022-10-24T13:39:57.705Z,47.21
2022-10-24T13:44:54.157Z,46.51
2022-10-24T13:49:55.747Z,45.97
2022-10-24T13:54:57.787Z,46.50
2022-10-24T13:59:56.565Z,47.26
2022-10-24T14:04:54.832Z,46.59
2022-10-24T14:09:58.265Z,46.95
2022-10-24T14:14:53.366Z,46.77
2022-10-24T14:19:54.352Z,47.65
2022-10-24T14:24:49.447Z,47.83
2022-10-24T14:29:53.558Z,48.36
2022-10-24T14:34:49.680Z,48.62
2022-10-24T14:39:43.449Z,48.73
2022-10-24T14:44:38.521Z,49.55
2022-10-24T14:49:36.838Z,49.72
2022-10-24T14:54:33.472Z,49.96
2022-10-24T14:59:30.149Z,50.21
2022-10-24T15:04:31.932Z,50.80
2022-10-24T15:09:26.730Z,51.37
2022-10-24T15:14:40.192Z,52.54
2022-10-24T15:19:38.930Z,53.15
2022-10-24T15:24:40.816Z,53.80
2022-10-24T15:29:37.392Z,54.56
2022-10-24T15:34:32.924Z,54.95
2022-10-24T15:39:27.781Z,55.81
2022-10-24T15:44:25.634Z,56.04
2022-10-24T15:49:21.542Z,55.55
2022-10-24T15:54:16.361Z,56.42
2022-10-24T15:59:09.756Z,56.67
2022-10-24T16:04:05.870Z,56.85
2022-10-24T16:08:59.175Z,57.05
2022-10-24T16:13:52.479Z,57.02
2022-10-24T16:18:45.926Z,56.90
2022-10-24T16:23:43.720Z,56.08
2022-10-24T16:28:36.884Z,55.54
2022-10-24T16:33:30.122Z,55.29
2022-10-24T16:38:23.320Z,55.32
2022-10-24T16:43:21.428Z,54.80
2022-10-24T16:48:15.205Z,54.31
2022-10-24T16:53:09.036Z,53.88
2022-10-24T16:58:02.370Z,53.91
2022-10-24T17:02:58.298Z,54.42
2022-10-24T17:07:51.663Z,56.23
2022-10-24T17:12:47.034Z,57.38
2022-10-24T17:17:40.328Z,58.24
2022-10-24T17:22:35.397Z,58.52
2022-10-24T17:27:28.773Z,59.72
2022-10-24T17:32:22.121Z,59.83
2022-10-24T17:37:20.712Z,60.25
2022-10-24T17:42:15.731Z,60.36
2022-10-24T17:47:09.438Z,60.81
2022-10-24T17:52:02.847Z,61.28
2022-10-24T17:56:56.066Z,61.66
2022-10-24T18:01:51.390Z,61.50
2022-10-24T18:06:44.708Z,61.46
2022-10-24T18:11:38.999Z,61.60
2022-10-24T18:16:34.367Z,62.19
2022-10-24T18:21:29.013Z,62.90
2022-10-24T18:26:24.338Z,62.78
2022-10-24T18:31:19.705Z,62.79
2022-10-24T18:36:14.640Z,62.79
2022-10-24T18:41:30.011Z,61.75
2022-10-24T18:46:23.586Z,61.81
2022-10-24T18:51:26.707Z,61.99
2022-10-24T18:56:21.870Z,62.31
2022-10-24T19:01:25.829Z,62.48
2022-10-24T19:06:22.925Z,62.51
2022-10-24T19:11:26.580Z,62.43
2022-10-24T19:16:28.596Z,63.42
2022-10-24T19:21:26.281Z,63.28
2022-10-24T19:26:19.652Z,63.48
2022-10-24T19:31:15.095Z,63.69
2022-10-24T19:36:14.340Z,63.70
2022-10-24T19:41:11.747Z,64.16
2022-10-24T19:46:18.750Z,63.94
2022-10-24T19:51:14.411Z,64.34
2022-10-24T19:56:09.230Z,63.93
2022-10-24T20:01:06.645Z,64.73
2022-10-24T20:06:00.449Z,64.33
2022-10-24T20:10:57.619Z,63.84
2022-10-24T20:15:54.989Z,64.13
2022-10-24T20:20:48.199Z,64.10
2022-10-24T20:25:41.352Z,63.72
2022-10-24T20:30:41.948Z,64.08
2022-10-24T20:35:35.248Z,64.30
2022-10-24T20:40:29.242Z,64.23
2022-10-24T20:45:25.195Z,64.16
2022-10-24T20:50:19.837Z,63.90
2022-10-24T20:55:25.328Z,63.67
2022-10-24T21:00:29.062Z,63.98
2022-10-24T21:05:25.369Z,64.55
2022-10-24T21:10:19.063Z,64.46
2022-10-24T21:15:15.501Z,64.82
2022-10-24T21:20:09.163Z,65.32
2022-10-24T21:25:03.609Z,65.75
2022-10-24T21:29:56.736Z,66.15
2022-10-24T21:34:49.854Z,67.12
2022-10-24T21:39:45.021Z,67.34
2022-10-24T21:44:39.477Z,67.75
2022-10-24T21:49:32.604Z,68.00
2022-10-24T21:54:26.853Z,68.60
2022-10-24T21:59:21.600Z,69.19
2022-10-24T22:04:17.828Z,69.41
2022-10-24T22:09:16.051Z,69.53
2022-10-24T22:14:09.370Z,69.93
2022-10-24T22:19:05.478Z,70.13
2022-10-24T22:24:01.924Z,69.78
2022-10-24T22:28:56.884Z,70.20
2022-10-24T22:33:50.682Z,70.48
2022-10-24T22:38:44.149Z,70.90
2022-10-24T22:43:39.261Z,70.87
2022-10-24T22:48:38.203Z,71.50
2022-10-24T22:53:33.939Z,71.51
2022-10-24T22:58:27.651Z,72.00
2022-10-24T23:03:33.283Z,72.38
2022-10-24T23:08:33.093Z,72.37
2022-10-24T23:13:26.936Z,72.52
2022-10-24T23:18:20.633Z,72.45
2022-10-24T23:23:28.732Z,72.61
2022-10-24T23:28:28.683Z,72.74
2022-10-24T23:33:27.068Z,72.80
2022-10-24T23:38:22.236Z,73.18
2022-10-24T23:43:17.689Z,73.14
2022-10-24T23:48:22.780Z,73.49
2022-10-24T23:53:33.141Z,73.87
2022-10-24T23:58:26.496Z,74.18
